Thurston, Nebraska
Current Conditions -  °F | °C
As of 8:55 AM on Sunday 23 Nov 2014 (Local Time) from KLCG Reporting Station
Overcast Overcast  
Wind Chill: 34°   Ceiling: 10000
Heat Index: 43°   Visibility: 10mi
Dew Point: 37°   Wind: 20mph
Humidity: 78%   Direction: 340°NNW
Pressure: 29.53"   Gusts: 25mph
Location:  42.18°N, 96.7°W
Report Text: KLCG 231455Z AUTO 34017G22KT 10SM SCT075 OVC100 06/03 A2953 RMK AO2 T00610026
Loading
Personal Weather Stations






























Interactive Weather Map New forecast layout! Learn more

10-Day Weather Forecast

Advertisements
Track Severe Weather on mobile